sensor_id;sensor_type;location;lat;lon;timestamp;P1;durP1;ratioP1;P2;durP2;ratioP2
59424;SDS011;45231;44.826;20.312;2022-12-24T00:01:59;86.20;;;54.10;;
59424;SDS011;45231;44.826;20.312;2022-12-24T00:04:25;94.30;;;57.87;;
59424;SDS011;45231;44.826;20.312;2022-12-24T00:06:51;88.03;;;53.95;;
59424;SDS011;45231;44.826;20.312;2022-12-24T00:09:17;100.93;;;60.55;;
59424;SDS011;45231;44.826;20.312;2022-12-24T00:11:43;93.55;;;55.92;;
59424;SDS011;45231;44.826;20.312;2022-12-24T00:14:09;95.15;;;58.53;;
59424;SDS011;45231;44.826;20.312;2022-12-24T00:16:35;87.97;;;55.70;;
59424;SDS011;45231;44.826;20.312;2022-12-24T00:19:01;96.60;;;57.90;;
59424;SDS011;45231;44.826;20.312;2022-12-24T00:21:27;80.20;;;50.17;;
59424;SDS011;45231;44.826;20.312;2022-12-24T00:23:53;81.43;;;52.47;;
59424;SDS011;45231;44.826;20.312;2022-12-24T00:26:20;85.77;;;53.47;;
59424;SDS011;45231;44.826;20.312;2022-12-24T00:28:46;79.25;;;50.40;;
59424;SDS011;45231;44.826;20.312;2022-12-24T00:31:13;71.63;;;45.03;;
59424;SDS011;45231;44.826;20.312;2022-12-24T00:33:39;64.47;;;40.58;;
59424;SDS011;45231;44.826;20.312;2022-12-24T00:36:05;71.57;;;43.72;;
59424;SDS011;45231;44.826;20.312;2022-12-24T00:38:32;74.78;;;46.42;;
59424;SDS011;45231;44.826;20.312;2022-12-24T00:41:02;63.20;;;41.43;;
59424;SDS011;45231;44.826;20.312;2022-12-24T00:43:28;67.75;;;43.47;;
59424;SDS011;45231;44.826;20.312;2022-12-24T00:45:55;66.13;;;41.95;;
59424;SDS011;45231;44.826;20.312;2022-12-24T00:48:21;71.90;;;43.60;;
59424;SDS011;45231;44.826;20.312;2022-12-24T00:50:47;73.93;;;45.40;;
59424;SDS011;45231;44.826;20.312;2022-12-24T00:53:14;73.05;;;44.45;;
59424;SDS011;45231;44.826;20.312;2022-12-24T00:55:40;76.65;;;46.70;;
59424;SDS011;45231;44.826;20.312;2022-12-24T00:58:06;73.75;;;46.50;;
59424;SDS011;45231;44.826;20.312;2022-12-24T01:00:32;72.67;;;45.30;;
59424;SDS011;45231;44.826;20.312;2022-12-24T01:02:58;63.90;;;41.20;;
59424;SDS011;45231;44.826;20.312;2022-12-24T01:05:24;72.53;;;44.73;;
59424;SDS011;45231;44.826;20.312;2022-12-24T01:07:50;68.60;;;41.90;;
59424;SDS011;45231;44.826;20.312;2022-12-24T01:10:18;72.40;;;43.22;;
59424;SDS011;45231;44.826;20.312;2022-12-24T01:12:44;70.47;;;43.88;;
59424;SDS011;45231;44.826;20.312;2022-12-24T01:15:11;64.07;;;41.55;;
59424;SDS011;45231;44.826;20.312;2022-12-24T01:17:38;70.32;;;43.15;;
59424;SDS011;45231;44.826;20.312;2022-12-24T01:20:05;71.10;;;42.83;;
59424;SDS011;45231;44.826;20.312;2022-12-24T01:22:32;66.43;;;40.58;;
59424;SDS011;45231;44.826;20.312;2022-12-24T01:24:58;63.92;;;39.83;;
59424;SDS011;45231;44.826;20.312;2022-12-24T01:27:24;65.87;;;42.67;;
59424;SDS011;45231;44.826;20.312;2022-12-24T01:29:50;65.27;;;40.77;;
59424;SDS011;45231;44.826;20.312;2022-12-24T01:32:16;64.57;;;39.42;;
59424;SDS011;45231;44.826;20.312;2022-12-24T01:34:42;70.17;;;43.13;;
59424;SDS011;45231;44.826;20.312;2022-12-24T01:37:08;67.70;;;42.83;;
59424;SDS011;45231;44.826;20.312;2022-12-24T01:39:34;63.30;;;39.83;;
59424;SDS011;45231;44.826;20.312;2022-12-24T01:42:00;63.23;;;41.00;;
59424;SDS011;45231;44.826;20.312;2022-12-24T01:45:21;66.85;;;43.42;;
59424;SDS011;45231;44.826;20.312;2022-12-24T01:47:45;65.30;;;41.20;;
59424;SDS011;45231;44.826;20.312;2022-12-24T01:50:12;66.10;;;40.70;;
59424;SDS011;45231;44.826;20.312;2022-12-24T01:52:39;70.30;;;42.00;;
59424;SDS011;45231;44.826;20.312;2022-12-24T01:55:07;62.92;;;40.08;;
59424;SDS011;45231;44.826;20.312;2022-12-24T01:57:36;63.08;;;38.95;;
59424;SDS011;45231;44.826;20.312;2022-12-24T02:00:04;60.28;;;40.10;;
59424;SDS011;45231;44.826;20.312;2022-12-24T02:02:31;66.53;;;39.83;;
59424;SDS011;45231;44.826;20.312;2022-12-24T02:05:00;66.50;;;40.92;;
59424;SDS011;45231;44.826;20.312;2022-12-24T02:07:27;62.00;;;40.42;;
59424;SDS011;45231;44.826;20.312;2022-12-24T02:09:55;67.63;;;44.13;;
59424;SDS011;45231;44.826;20.312;2022-12-24T02:12:21;71.72;;;45.03;;
59424;SDS011;45231;44.826;20.312;2022-12-24T02:14:47;66.05;;;41.22;;
59424;SDS011;45231;44.826;20.312;2022-12-24T02:17:22;62.33;;;40.83;;
59424;SDS011;45231;44.826;20.312;2022-12-24T02:27:56;67.38;;;40.50;;
59424;SDS011;45231;44.826;20.312;2022-12-24T02:37:48;59.85;;;36.83;;
59424;SDS011;45231;44.826;20.312;2022-12-24T02:40:26;60.33;;;37.33;;
59424;SDS011;45231;44.826;20.312;2022-12-24T02:42:54;58.00;;;36.83;;
59424;SDS011;45231;44.826;20.312;2022-12-24T02:45:22;55.03;;;34.17;;
59424;SDS011;45231;44.826;20.312;2022-12-24T02:47:50;61.38;;;37.70;;
59424;SDS011;45231;44.826;20.312;2022-12-24T02:50:19;56.78;;;37.40;;
59424;SDS011;45231;44.826;20.312;2022-12-24T02:52:45;55.67;;;36.70;;
59424;SDS011;45231;44.826;20.312;2022-12-24T03:00:07;48.17;;;31.00;;
59424;SDS011;45231;44.826;20.312;2022-12-24T03:02:41;44.80;;;28.23;;
59424;SDS011;45231;44.826;20.312;2022-12-24T03:07:46;45.08;;;27.80;;
59424;SDS011;45231;44.826;20.312;2022-12-24T03:13:18;41.83;;;28.10;;
59424;SDS011;45231;44.826;20.312;2022-12-24T03:15:44;45.58;;;29.45;;
59424;SDS011;45231;44.826;20.312;2022-12-24T03:18:11;43.78;;;27.50;;
59424;SDS011;45231;44.826;20.312;2022-12-24T03:20:40;42.63;;;25.83;;
59424;SDS011;45231;44.826;20.312;2022-12-24T03:23:07;40.58;;;26.00;;
59424;SDS011;45231;44.826;20.312;2022-12-24T03:25:33;39.10;;;25.40;;
59424;SDS011;45231;44.826;20.312;2022-12-24T03:30:26;47.25;;;28.10;;
59424;SDS011;45231;44.826;20.312;2022-12-24T03:32:52;44.83;;;28.58;;
59424;SDS011;45231;44.826;20.312;2022-12-24T03:35:18;48.17;;;29.33;;
59424;SDS011;45231;44.826;20.312;2022-12-24T03:37:44;46.72;;;29.90;;
59424;SDS011;45231;44.826;20.312;2022-12-24T03:40:10;48.05;;;30.25;;
59424;SDS011;45231;44.826;20.312;2022-12-24T03:42:37;42.72;;;28.63;;
59424;SDS011;45231;44.826;20.312;2022-12-24T03:45:03;45.17;;;29.25;;
59424;SDS011;45231;44.826;20.312;2022-12-24T03:47:29;43.53;;;26.88;;
59424;SDS011;45231;44.826;20.312;2022-12-24T03:49:55;50.83;;;30.75;;
59424;SDS011;45231;44.826;20.312;2022-12-24T03:52:22;39.93;;;26.17;;
59424;SDS011;45231;44.826;20.312;2022-12-24T03:54:48;45.13;;;27.23;;
59424;SDS011;45231;44.826;20.312;2022-12-24T03:57:14;43.10;;;26.47;;
59424;SDS011;45231;44.826;20.312;2022-12-24T03:59:40;37.22;;;25.45;;
59424;SDS011;45231;44.826;20.312;2022-12-24T04:02:06;40.27;;;25.23;;
59424;SDS011;45231;44.826;20.312;2022-12-24T04:04:32;39.23;;;25.30;;
59424;SDS011;45231;44.826;20.312;2022-12-24T04:07:00;39.60;;;26.48;;
59424;SDS011;45231;44.826;20.312;2022-12-24T04:09:26;42.97;;;26.60;;
59424;SDS011;45231;44.826;20.312;2022-12-24T04:11:52;35.60;;;24.03;;
59424;SDS011;45231;44.826;20.312;2022-12-24T04:14:18;39.30;;;24.60;;
59424;SDS011;45231;44.826;20.312;2022-12-24T04:16:45;39.57;;;24.53;;
59424;SDS011;45231;44.826;20.312;2022-12-24T04:19:11;40.28;;;24.83;;
59424;SDS011;45231;44.826;20.312;2022-12-24T04:21:37;38.37;;;26.43;;
59424;SDS011;45231;44.826;20.312;2022-12-24T04:24:03;37.37;;;24.00;;
59424;SDS011;45231;44.826;20.312;2022-12-24T04:26:29;40.33;;;25.00;;
59424;SDS011;45231;44.826;20.312;2022-12-24T04:28:55;40.70;;;26.13;;
59424;SDS011;45231;44.826;20.312;2022-12-24T04:31:21;43.85;;;29.00;;
59424;SDS011;45231;44.826;20.312;2022-12-24T04:33:49;46.33;;;29.30;;
59424;SDS011;45231;44.826;20.312;2022-12-24T04:36:15;50.25;;;31.27;;
59424;SDS011;45231;44.826;20.312;2022-12-24T04:38:42;43.13;;;28.17;;
59424;SDS011;45231;44.826;20.312;2022-12-24T04:41:12;43.53;;;29.00;;
59424;SDS011;45231;44.826;20.312;2022-12-24T04:43:39;46.88;;;30.52;;
59424;SDS011;45231;44.826;20.312;2022-12-24T04:46:06;47.03;;;29.63;;
59424;SDS011;45231;44.826;20.312;2022-12-24T04:48:32;46.75;;;30.15;;
59424;SDS011;45231;44.826;20.312;2022-12-24T04:51:03;47.03;;;29.38;;
59424;SDS011;45231;44.826;20.312;2022-12-24T04:53:29;44.15;;;29.17;;
59424;SDS011;45231;44.826;20.312;2022-12-24T04:55:56;46.95;;;30.05;;
59424;SDS011;45231;44.826;20.312;2022-12-24T04:58:22;43.22;;;28.17;;
59424;SDS011;45231;44.826;20.312;2022-12-24T05:00:48;45.58;;;27.95;;
59424;SDS011;45231;44.826;20.312;2022-12-24T05:03:14;43.40;;;27.97;;
59424;SDS011;45231;44.826;20.312;2022-12-24T05:05:40;45.95;;;29.25;;
59424;SDS011;45231;44.826;20.312;2022-12-24T05:08:06;45.80;;;29.43;;
59424;SDS011;45231;44.826;20.312;2022-12-24T05:10:32;43.97;;;27.97;;
59424;SDS011;45231;44.826;20.312;2022-12-24T05:12:59;43.25;;;28.08;;
59424;SDS011;45231;44.826;20.312;2022-12-24T05:15:25;42.30;;;27.83;;
59424;SDS011;45231;44.826;20.312;2022-12-24T05:17:51;43.80;;;27.80;;
59424;SDS011;45231;44.826;20.312;2022-12-24T05:20:17;44.53;;;28.87;;
59424;SDS011;45231;44.826;20.312;2022-12-24T05:22:43;42.23;;;27.27;;
59424;SDS011;45231;44.826;20.312;2022-12-24T05:25:30;39.97;;;26.40;;
59424;SDS011;45231;44.826;20.312;2022-12-24T05:28:16;45.72;;;27.38;;
59424;SDS011;45231;44.826;20.312;2022-12-24T05:30:42;42.90;;;26.80;;
59424;SDS011;45231;44.826;20.312;2022-12-24T05:33:08;45.58;;;25.08;;
59424;SDS011;45231;44.826;20.312;2022-12-24T05:35:34;40.13;;;25.05;;
59424;SDS011;45231;44.826;20.312;2022-12-24T05:38:00;35.27;;;22.87;;
59424;SDS011;45231;44.826;20.312;2022-12-24T05:40:26;35.22;;;21.83;;
59424;SDS011;45231;44.826;20.312;2022-12-24T05:42:52;34.67;;;21.97;;
59424;SDS011;45231;44.826;20.312;2022-12-24T05:45:18;35.07;;;22.00;;
59424;SDS011;45231;44.826;20.312;2022-12-24T05:47:44;33.55;;;21.02;;
59424;SDS011;45231;44.826;20.312;2022-12-24T05:50:10;39.97;;;22.80;;
59424;SDS011;45231;44.826;20.312;2022-12-24T05:52:37;41.45;;;23.13;;
59424;SDS011;45231;44.826;20.312;2022-12-24T05:55:03;35.37;;;23.33;;
59424;SDS011;45231;44.826;20.312;2022-12-24T05:57:29;34.40;;;22.45;;
59424;SDS011;45231;44.826;20.312;2022-12-24T05:59:55;39.27;;;23.90;;
59424;SDS011;45231;44.826;20.312;2022-12-24T06:02:21;38.67;;;25.00;;
59424;SDS011;45231;44.826;20.312;2022-12-24T06:04:47;35.23;;;24.23;;
59424;SDS011;45231;44.826;20.312;2022-12-24T06:07:13;34.67;;;21.67;;
59424;SDS011;45231;44.826;20.312;2022-12-24T06:09:39;38.15;;;23.52;;
59424;SDS011;45231;44.826;20.312;2022-12-24T06:12:05;31.65;;;20.60;;
59424;SDS011;45231;44.826;20.312;2022-12-24T06:14:31;33.63;;;22.50;;
59424;SDS011;45231;44.826;20.312;2022-12-24T06:16:57;32.40;;;21.33;;
59424;SDS011;45231;44.826;20.312;2022-12-24T06:19:23;36.10;;;23.93;;
59424;SDS011;45231;44.826;20.312;2022-12-24T06:21:49;40.50;;;26.00;;
59424;SDS011;45231;44.826;20.312;2022-12-24T06:24:15;42.77;;;24.87;;
59424;SDS011;45231;44.826;20.312;2022-12-24T06:26:41;41.07;;;26.90;;
59424;SDS011;45231;44.826;20.312;2022-12-24T06:29:08;41.80;;;25.60;;
59424;SDS011;45231;44.826;20.312;2022-12-24T06:31:34;38.13;;;24.88;;
59424;SDS011;45231;44.826;20.312;2022-12-24T06:34:00;36.50;;;24.20;;
59424;SDS011;45231;44.826;20.312;2022-12-24T06:36:26;46.43;;;25.77;;
59424;SDS011;45231;44.826;20.312;2022-12-24T06:38:52;41.60;;;27.08;;
59424;SDS011;45231;44.826;20.312;2022-12-24T06:41:19;42.95;;;28.10;;
59424;SDS011;45231;44.826;20.312;2022-12-24T06:43:46;38.33;;;27.10;;
59424;SDS011;45231;44.826;20.312;2022-12-24T06:46:13;40.20;;;26.27;;
59424;SDS011;45231;44.826;20.312;2022-12-24T06:48:39;43.50;;;26.45;;
59424;SDS011;45231;44.826;20.312;2022-12-24T06:51:06;46.55;;;26.88;;
59424;SDS011;45231;44.826;20.312;2022-12-24T06:53:32;41.70;;;25.77;;
59424;SDS011;45231;44.826;20.312;2022-12-24T06:56:02;41.90;;;24.50;;
59424;SDS011;45231;44.826;20.312;2022-12-24T06:58:28;36.17;;;24.33;;
59424;SDS011;45231;44.826;20.312;2022-12-24T07:00:54;40.08;;;24.60;;
59424;SDS011;45231;44.826;20.312;2022-12-24T07:03:21;36.17;;;22.70;;
59424;SDS011;45231;44.826;20.312;2022-12-24T07:05:47;36.93;;;23.90;;
59424;SDS011;45231;44.826;20.312;2022-12-24T07:08:13;34.20;;;23.17;;
59424;SDS011;45231;44.826;20.312;2022-12-24T07:10:39;33.63;;;21.92;;
59424;SDS011;45231;44.826;20.312;2022-12-24T07:13:05;34.17;;;21.63;;
59424;SDS011;45231;44.826;20.312;2022-12-24T07:15:31;30.17;;;20.33;;
59424;SDS011;45231;44.826;20.312;2022-12-24T07:17:57;37.17;;;21.00;;
59424;SDS011;45231;44.826;20.312;2022-12-24T07:20:23;32.87;;;21.47;;
59424;SDS011;45231;44.826;20.312;2022-12-24T07:22:49;35.20;;;22.05;;
59424;SDS011;45231;44.826;20.312;2022-12-24T07:25:15;31.70;;;21.33;;
59424;SDS011;45231;44.826;20.312;2022-12-24T07:27:41;33.92;;;19.80;;
59424;SDS011;45231;44.826;20.312;2022-12-24T07:30:07;30.77;;;19.50;;
59424;SDS011;45231;44.826;20.312;2022-12-24T07:32:34;35.58;;;22.42;;
59424;SDS011;45231;44.826;20.312;2022-12-24T07:35:00;33.07;;;21.93;;
59424;SDS011;45231;44.826;20.312;2022-12-24T07:37:27;39.75;;;22.75;;
59424;SDS011;45231;44.826;20.312;2022-12-24T07:39:53;36.40;;;23.43;;
59424;SDS011;45231;44.826;20.312;2022-12-24T07:42:19;35.70;;;21.83;;
59424;SDS011;45231;44.826;20.312;2022-12-24T07:44:45;35.27;;;24.60;;
59424;SDS011;45231;44.826;20.312;2022-12-24T07:47:11;34.40;;;22.60;;
59424;SDS011;45231;44.826;20.312;2022-12-24T07:49:37;39.63;;;25.63;;
59424;SDS011;45231;44.826;20.312;2022-12-24T07:52:03;45.85;;;27.98;;
59424;SDS011;45231;44.826;20.312;2022-12-24T07:54:29;56.53;;;34.35;;
59424;SDS011;45231;44.826;20.312;2022-12-24T07:56:55;52.20;;;31.93;;
59424;SDS011;45231;44.826;20.312;2022-12-24T07:59:21;42.37;;;27.67;;
59424;SDS011;45231;44.826;20.312;2022-12-24T08:01:47;41.13;;;25.77;;
59424;SDS011;45231;44.826;20.312;2022-12-24T08:04:13;39.50;;;24.97;;
59424;SDS011;45231;44.826;20.312;2022-12-24T08:06:39;39.93;;;25.20;;
59424;SDS011;45231;44.826;20.312;2022-12-24T08:09:05;38.60;;;24.88;;
59424;SDS011;45231;44.826;20.312;2022-12-24T08:11:31;38.90;;;25.13;;
59424;SDS011;45231;44.826;20.312;2022-12-24T08:13:58;41.97;;;26.07;;
59424;SDS011;45231;44.826;20.312;2022-12-24T08:16:24;42.70;;;25.80;;
59424;SDS011;45231;44.826;20.312;2022-12-24T08:18:50;42.87;;;25.67;;
59424;SDS011;45231;44.826;20.312;2022-12-24T08:21:16;38.65;;;24.33;;
59424;SDS011;45231;44.826;20.312;2022-12-24T08:23:42;45.45;;;27.13;;
59424;SDS011;45231;44.826;20.312;2022-12-24T08:26:09;37.07;;;24.40;;
59424;SDS011;45231;44.826;20.312;2022-12-24T08:31:01;37.08;;;24.92;;
59424;SDS011;45231;44.826;20.312;2022-12-24T08:33:27;38.80;;;26.23;;
59424;SDS011;45231;44.826;20.312;2022-12-24T08:35:54;38.07;;;25.40;;
59424;SDS011;45231;44.826;20.312;2022-12-24T08:38:20;38.85;;;25.20;;
59424;SDS011;45231;44.826;20.312;2022-12-24T08:40:46;37.87;;;24.37;;
59424;SDS011;45231;44.826;20.312;2022-12-24T08:43:14;37.53;;;23.60;;
59424;SDS011;45231;44.826;20.312;2022-12-24T08:45:40;41.67;;;26.10;;
59424;SDS011;45231;44.826;20.312;2022-12-24T08:48:07;37.63;;;23.20;;
59424;SDS011;45231;44.826;20.312;2022-12-24T08:50:33;38.72;;;24.15;;
59424;SDS011;45231;44.826;20.312;2022-12-24T08:52:59;36.13;;;24.52;;
59424;SDS011;45231;44.826;20.312;2022-12-24T08:55:25;37.23;;;23.30;;
59424;SDS011;45231;44.826;20.312;2022-12-24T08:57:52;36.87;;;22.63;;
59424;SDS011;45231;44.826;20.312;2022-12-24T09:00:18;32.17;;;21.38;;
59424;SDS011;45231;44.826;20.312;2022-12-24T09:02:44;35.93;;;22.90;;
59424;SDS011;45231;44.826;20.312;2022-12-24T09:05:10;36.57;;;22.17;;
59424;SDS011;45231;44.826;20.312;2022-12-24T09:07:36;34.78;;;23.48;;
59424;SDS011;45231;44.826;20.312;2022-12-24T09:10:02;31.13;;;20.70;;
59424;SDS011;45231;44.826;20.312;2022-12-24T09:12:28;37.78;;;23.05;;
59424;SDS011;45231;44.826;20.312;2022-12-24T09:14:54;33.13;;;22.13;;
59424;SDS011;45231;44.826;20.312;2022-12-24T09:17:20;36.50;;;22.07;;
59424;SDS011;45231;44.826;20.312;2022-12-24T09:19:46;35.87;;;22.57;;
59424;SDS011;45231;44.826;20.312;2022-12-24T09:22:13;33.00;;;22.53;;
59424;SDS011;45231;44.826;20.312;2022-12-24T09:24:39;36.50;;;23.30;;
59424;SDS011;45231;44.826;20.312;2022-12-24T09:27:05;38.73;;;24.30;;
59424;SDS011;45231;44.826;20.312;2022-12-24T09:29:31;34.77;;;22.33;;
59424;SDS011;45231;44.826;20.312;2022-12-24T09:31:58;35.42;;;23.10;;
59424;SDS011;45231;44.826;20.312;2022-12-24T09:34:24;35.90;;;22.55;;
59424;SDS011;45231;44.826;20.312;2022-12-24T09:36:50;38.38;;;23.02;;
59424;SDS011;45231;44.826;20.312;2022-12-24T09:39:18;36.47;;;23.40;;
59424;SDS011;45231;44.826;20.312;2022-12-24T09:41:52;34.97;;;22.90;;
59424;SDS011;45231;44.826;20.312;2022-12-24T09:44:26;38.67;;;23.80;;
59424;SDS011;45231;44.826;20.312;2022-12-24T09:46:53;38.38;;;24.92;;
59424;SDS011;45231;44.826;20.312;2022-12-24T09:49:21;38.20;;;24.10;;
59424;SDS011;45231;44.826;20.312;2022-12-24T09:51:50;38.15;;;23.90;;
59424;SDS011;45231;44.826;20.312;2022-12-24T09:54:28;33.80;;;21.05;;
59424;SDS011;45231;44.826;20.312;2022-12-24T09:56:55;31.20;;;21.30;;
59424;SDS011;45231;44.826;20.312;2022-12-24T09:59:24;29.15;;;19.83;;
59424;SDS011;45231;44.826;20.312;2022-12-24T10:01:52;31.30;;;19.35;;
59424;SDS011;45231;44.826;20.312;2022-12-24T10:04:27;28.48;;;17.70;;
59424;SDS011;45231;44.826;20.312;2022-12-24T10:07:01;29.08;;;19.23;;
59424;SDS011;45231;44.826;20.312;2022-12-24T10:09:30;31.85;;;18.13;;
59424;SDS011;45231;44.826;20.312;2022-12-24T10:14:36;31.27;;;18.42;;
59424;SDS011;45231;44.826;20.312;2022-12-24T10:17:20;29.55;;;18.83;;
59424;SDS011;45231;44.826;20.312;2022-12-24T10:25:20;34.10;;;21.33;;
59424;SDS011;45231;44.826;20.312;2022-12-24T10:27:43;36.08;;;21.67;;
59424;SDS011;45231;44.826;20.312;2022-12-24T10:30:14;34.67;;;22.15;;
59424;SDS011;45231;44.826;20.312;2022-12-24T10:32:41;36.55;;;24.25;;
59424;SDS011;45231;44.826;20.312;2022-12-24T10:35:15;33.40;;;23.63;;
59424;SDS011;45231;44.826;20.312;2022-12-24T10:37:45;32.63;;;22.38;;
59424;SDS011;45231;44.826;20.312;2022-12-24T10:42:56;38.97;;;26.42;;
59424;SDS011;45231;44.826;20.312;2022-12-24T10:45:23;43.60;;;27.80;;
59424;SDS011;45231;44.826;20.312;2022-12-24T10:47:52;38.30;;;24.73;;
59424;SDS011;45231;44.826;20.312;2022-12-24T10:50:36;37.75;;;24.23;;
59424;SDS011;45231;44.826;20.312;2022-12-24T10:53:16;38.92;;;26.70;;
59424;SDS011;45231;44.826;20.312;2022-12-24T10:55:43;38.83;;;24.40;;
59424;SDS011;45231;44.826;20.312;2022-12-24T10:58:15;37.17;;;24.15;;
59424;SDS011;45231;44.826;20.312;2022-12-24T11:00:41;43.90;;;29.50;;
59424;SDS011;45231;44.826;20.312;2022-12-24T11:05:42;39.83;;;26.35;;
59424;SDS011;45231;44.826;20.312;2022-12-24T11:10:54;35.20;;;23.95;;
59424;SDS011;45231;44.826;20.312;2022-12-24T11:13:28;35.65;;;23.25;;
59424;SDS011;45231;44.826;20.312;2022-12-24T11:15:58;36.30;;;24.48;;
59424;SDS011;45231;44.826;20.312;2022-12-24T11:18:25;37.10;;;24.58;;
59424;SDS011;45231;44.826;20.312;2022-12-24T11:20:51;38.92;;;27.15;;
59424;SDS011;45231;44.826;20.312;2022-12-24T11:23:18;39.72;;;28.02;;
59424;SDS011;45231;44.826;20.312;2022-12-24T11:25:48;40.10;;;28.88;;
59424;SDS011;45231;44.826;20.312;2022-12-24T11:28:20;44.90;;;29.77;;
59424;SDS011;45231;44.826;20.312;2022-12-24T11:33:21;41.70;;;27.48;;
59424;SDS011;45231;44.826;20.312;2022-12-24T11:35:49;44.47;;;30.13;;
59424;SDS011;45231;44.826;20.312;2022-12-24T11:38:17;46.47;;;30.23;;
59424;SDS011;45231;44.826;20.312;2022-12-24T11:40:46;50.42;;;31.85;;
59424;SDS011;45231;44.826;20.312;2022-12-24T11:43:15;48.15;;;32.70;;
59424;SDS011;45231;44.826;20.312;2022-12-24T11:45:48;50.63;;;34.22;;
59424;SDS011;45231;44.826;20.312;2022-12-24T11:50:57;49.92;;;34.22;;
59424;SDS011;45231;44.826;20.312;2022-12-24T11:53:58;52.65;;;33.13;;
59424;SDS011;45231;44.826;20.312;2022-12-24T11:56:32;47.85;;;31.30;;
59424;SDS011;45231;44.826;20.312;2022-12-24T12:02:01;47.55;;;32.70;;
59424;SDS011;45231;44.826;20.312;2022-12-24T12:04:30;45.50;;;29.77;;
59424;SDS011;45231;44.826;20.312;2022-12-24T12:07:01;34.33;;;23.17;;
59424;SDS011;45231;44.826;20.312;2022-12-24T12:09:36;34.38;;;23.55;;
59424;SDS011;45231;44.826;20.312;2022-12-24T12:12:06;35.25;;;22.98;;
59424;SDS011;45231;44.826;20.312;2022-12-24T12:14:36;36.28;;;23.60;;
59424;SDS011;45231;44.826;20.312;2022-12-24T12:17:05;34.65;;;23.52;;
59424;SDS011;45231;44.826;20.312;2022-12-24T12:19:38;38.40;;;25.58;;
59424;SDS011;45231;44.826;20.312;2022-12-24T12:22:09;36.72;;;25.52;;
59424;SDS011;45231;44.826;20.312;2022-12-24T12:24:42;33.08;;;24.52;;
59424;SDS011;45231;44.826;20.312;2022-12-24T12:27:16;37.42;;;26.75;;
59424;SDS011;45231;44.826;20.312;2022-12-24T12:29:44;35.40;;;25.45;;
59424;SDS011;45231;44.826;20.312;2022-12-24T12:32:15;35.47;;;24.58;;
59424;SDS011;45231;44.826;20.312;2022-12-24T12:34:58;40.33;;;26.05;;
59424;SDS011;45231;44.826;20.312;2022-12-24T12:37:35;36.28;;;25.30;;
59424;SDS011;45231;44.826;20.312;2022-12-24T12:40:02;35.25;;;25.23;;
59424;SDS011;45231;44.826;20.312;2022-12-24T12:42:29;37.70;;;25.17;;
59424;SDS011;45231;44.826;20.312;2022-12-24T12:50:39;33.92;;;23.67;;
59424;SDS011;45231;44.826;20.312;2022-12-24T12:53:23;33.42;;;25.00;;
59424;SDS011;45231;44.826;20.312;2022-12-24T12:58:24;32.63;;;23.17;;
59424;SDS011;45231;44.826;20.312;2022-12-24T13:00:53;31.80;;;23.33;;
59424;SDS011;45231;44.826;20.312;2022-12-24T13:21:36;34.30;;;23.73;;
59424;SDS011;45231;44.826;20.312;2022-12-24T13:24:17;34.20;;;24.60;;
59424;SDS011;45231;44.826;20.312;2022-12-24T13:32:27;33.90;;;24.95;;
59424;SDS011;45231;44.826;20.312;2022-12-24T13:34:42;34.92;;;24.95;;
59424;SDS011;45231;44.826;20.312;2022-12-24T13:37:19;35.67;;;26.45;;
59424;SDS011;45231;44.826;20.312;2022-12-24T13:50:35;45.03;;;31.55;;
59424;SDS011;45231;44.826;20.312;2022-12-24T13:53:02;45.67;;;38.22;;
59424;SDS011;45231;44.826;20.312;2022-12-24T13:55:29;39.90;;;29.63;;
59424;SDS011;45231;44.826;20.312;2022-12-24T13:57:59;40.42;;;30.33;;
59424;SDS011;45231;44.826;20.312;2022-12-24T14:05:35;47.63;;;33.67;;
59424;SDS011;45231;44.826;20.312;2022-12-24T14:08:03;48.33;;;34.28;;
59424;SDS011;45231;44.826;20.312;2022-12-24T14:10:33;45.60;;;33.85;;
59424;SDS011;45231;44.826;20.312;2022-12-24T14:13:02;47.63;;;35.33;;
59424;SDS011;45231;44.826;20.312;2022-12-24T14:18:21;47.92;;;34.10;;
59424;SDS011;45231;44.826;20.312;2022-12-24T14:20:49;53.40;;;39.05;;
59424;SDS011;45231;44.826;20.312;2022-12-24T14:23:24;47.60;;;36.50;;
59424;SDS011;45231;44.826;20.312;2022-12-24T14:25:51;57.10;;;39.42;;
59424;SDS011;45231;44.826;20.312;2022-12-24T14:28:18;59.60;;;42.10;;
59424;SDS011;45231;44.826;20.312;2022-12-24T14:30:58;57.53;;;40.75;;
59424;SDS011;45231;44.826;20.312;2022-12-24T14:33:28;55.58;;;39.28;;
59424;SDS011;45231;44.826;20.312;2022-12-24T14:35:54;58.60;;;40.03;;
59424;SDS011;45231;44.826;20.312;2022-12-24T14:38:20;55.40;;;39.50;;
59424;SDS011;45231;44.826;20.312;2022-12-24T14:43:17;48.23;;;36.83;;
59424;SDS011;45231;44.826;20.312;2022-12-24T14:45:58;51.20;;;37.05;;
59424;SDS011;45231;44.826;20.312;2022-12-24T14:48:35;54.10;;;38.38;;
59424;SDS011;45231;44.826;20.312;2022-12-24T14:51:05;52.72;;;40.70;;
59424;SDS011;45231;44.826;20.312;2022-12-24T14:56:19;48.92;;;34.67;;
59424;SDS011;45231;44.826;20.312;2022-12-24T14:58:49;51.55;;;37.08;;
59424;SDS011;45231;44.826;20.312;2022-12-24T15:03:45;51.08;;;36.15;;
59424;SDS011;45231;44.826;20.312;2022-12-24T15:06:11;50.93;;;36.80;;
59424;SDS011;45231;44.826;20.312;2022-12-24T15:08:39;46.78;;;34.78;;
59424;SDS011;45231;44.826;20.312;2022-12-24T15:11:09;49.00;;;35.22;;
59424;SDS011;45231;44.826;20.312;2022-12-24T15:13:46;46.85;;;34.25;;
59424;SDS011;45231;44.826;20.312;2022-12-24T15:16:14;46.50;;;32.60;;
59424;SDS011;45231;44.826;20.312;2022-12-24T15:18:45;46.95;;;33.00;;
59424;SDS011;45231;44.826;20.312;2022-12-24T15:21:14;49.45;;;33.15;;
59424;SDS011;45231;44.826;20.312;2022-12-24T15:23:44;44.55;;;32.35;;
59424;SDS011;45231;44.826;20.312;2022-12-24T15:26:21;45.38;;;34.45;;
59424;SDS011;45231;44.826;20.312;2022-12-24T15:28:47;50.20;;;36.70;;
59424;SDS011;45231;44.826;20.312;2022-12-24T15:31:20;51.05;;;37.15;;
59424;SDS011;45231;44.826;20.312;2022-12-24T15:33:48;53.40;;;35.67;;
59424;SDS011;45231;44.826;20.312;2022-12-24T15:36:15;49.60;;;35.60;;
59424;SDS011;45231;44.826;20.312;2022-12-24T15:38:43;47.53;;;33.03;;
59424;SDS011;45231;44.826;20.312;2022-12-24T15:41:23;42.05;;;30.98;;
59424;SDS011;45231;44.826;20.312;2022-12-24T15:43:50;45.97;;;33.78;;
59424;SDS011;45231;44.826;20.312;2022-12-24T15:48:42;46.63;;;35.03;;
59424;SDS011;45231;44.826;20.312;2022-12-24T15:51:09;48.50;;;35.03;;
59424;SDS011;45231;44.826;20.312;2022-12-24T15:53:40;53.97;;;36.72;;
59424;SDS011;45231;44.826;20.312;2022-12-24T15:56:11;49.05;;;35.38;;
59424;SDS011;45231;44.826;20.312;2022-12-24T15:58:39;46.40;;;32.15;;
59424;SDS011;45231;44.826;20.312;2022-12-24T16:03:35;49.47;;;37.13;;
59424;SDS011;45231;44.826;20.312;2022-12-24T16:06:11;50.35;;;36.83;;
59424;SDS011;45231;44.826;20.312;2022-12-24T16:08:37;49.78;;;37.65;;
59424;SDS011;45231;44.826;20.312;2022-12-24T16:13:30;49.43;;;37.33;;
59424;SDS011;45231;44.826;20.312;2022-12-24T16:18:26;60.58;;;41.13;;